sensor_id;sensor_type;location;lat;lon;timestamp;P1;durP1;ratioP1;P2;durP2;ratioP2
34673;SDS011;20879;55.668;37.858;2023-04-06T00:02:19;10.05;;;6.95;;
34673;SDS011;20879;55.668;37.858;2023-04-06T00:04:49;11.00;;;5.65;;
34673;SDS011;20879;55.668;37.858;2023-04-06T00:07:18;8.93;;;5.10;;
34673;SDS011;20879;55.668;37.858;2023-04-06T00:09:53;11.50;;;7.53;;
34673;SDS011;20879;55.668;37.858;2023-04-06T00:12:22;8.98;;;4.72;;
34673;SDS011;20879;55.668;37.858;2023-04-06T00:14:51;9.35;;;4.78;;
34673;SDS011;20879;55.668;37.858;2023-04-06T00:17:23;9.40;;;6.93;;
34673;SDS011;20879;55.668;37.858;2023-04-06T00:19:52;8.32;;;5.57;;
34673;SDS011;20879;55.668;37.858;2023-04-06T00:22:22;8.27;;;5.60;;
34673;SDS011;20879;55.668;37.858;2023-04-06T00:24:51;6.55;;;4.57;;
34673;SDS011;20879;55.668;37.858;2023-04-06T00:27:26;8.32;;;5.60;;
34673;SDS011;20879;55.668;37.858;2023-04-06T00:29:56;10.48;;;7.85;;
34673;SDS011;20879;55.668;37.858;2023-04-06T00:32:27;5.80;;;4.43;;
34673;SDS011;20879;55.668;37.858;2023-04-06T00:34:57;6.78;;;4.97;;
34673;SDS011;20879;55.668;37.858;2023-04-06T00:37:27;9.13;;;6.53;;
34673;SDS011;20879;55.668;37.858;2023-04-06T00:39:56;10.35;;;7.43;;
34673;SDS011;20879;55.668;37.858;2023-04-06T00:42:26;9.40;;;6.78;;
34673;SDS011;20879;55.668;37.858;2023-04-06T00:44:57;10.93;;;7.68;;
34673;SDS011;20879;55.668;37.858;2023-04-06T00:47:32;11.77;;;7.13;;
34673;SDS011;20879;55.668;37.858;2023-04-06T00:50:02;10.60;;;7.00;;
34673;SDS011;20879;55.668;37.858;2023-04-06T00:52:33;9.68;;;6.68;;
34673;SDS011;20879;55.668;37.858;2023-04-06T00:55:08;11.93;;;7.53;;
34673;SDS011;20879;55.668;37.858;2023-04-06T00:57:42;8.50;;;4.38;;
34673;SDS011;20879;55.668;37.858;2023-04-06T01:00:12;10.93;;;6.95;;
34673;SDS011;20879;55.668;37.858;2023-04-06T01:02:46;9.35;;;7.10;;
34673;SDS011;20879;55.668;37.858;2023-04-06T01:05:19;12.75;;;6.05;;
34673;SDS011;20879;55.668;37.858;2023-04-06T01:07:53;11.77;;;9.15;;
34673;SDS011;20879;55.668;37.858;2023-04-06T01:10:26;12.88;;;9.55;;
34673;SDS011;20879;55.668;37.858;2023-04-06T01:13:10;10.98;;;6.97;;
34673;SDS011;20879;55.668;37.858;2023-04-06T01:15:53;7.95;;;5.80;;
34673;SDS011;20879;55.668;37.858;2023-04-06T01:18:47;9.65;;;7.75;;
34673;SDS011;20879;55.668;37.858;2023-04-06T01:21:31;11.15;;;7.72;;
34673;SDS011;20879;55.668;37.858;2023-04-06T01:24:28;11.18;;;5.90;;
34673;SDS011;20879;55.668;37.858;2023-04-06T01:27:11;13.90;;;8.75;;
34673;SDS011;20879;55.668;37.858;2023-04-06T01:29:56;8.77;;;6.60;;
34673;SDS011;20879;55.668;37.858;2023-04-06T01:32:54;10.30;;;7.93;;
34673;SDS011;20879;55.668;37.858;2023-04-06T01:35:46;9.25;;;6.40;;
34673;SDS011;20879;55.668;37.858;2023-04-06T01:38:22;12.75;;;7.00;;
34673;SDS011;20879;55.668;37.858;2023-04-06T01:41:00;10.75;;;6.80;;
34673;SDS011;20879;55.668;37.858;2023-04-06T01:43:36;11.15;;;8.30;;
34673;SDS011;20879;55.668;37.858;2023-04-06T01:46:09;10.25;;;6.18;;
34673;SDS011;20879;55.668;37.858;2023-04-06T01:48:41;8.82;;;6.70;;
34673;SDS011;20879;55.668;37.858;2023-04-06T01:51:17;8.57;;;5.80;;
34673;SDS011;20879;55.668;37.858;2023-04-06T01:54:00;10.50;;;6.82;;
34673;SDS011;20879;55.668;37.858;2023-04-06T01:57:01;9.63;;;6.40;;
34673;SDS011;20879;55.668;37.858;2023-04-06T01:59:45;10.35;;;6.63;;
34673;SDS011;20879;55.668;37.858;2023-04-06T02:02:40;6.25;;;4.43;;
34673;SDS011;20879;55.668;37.858;2023-04-06T02:05:21;9.10;;;5.93;;
34673;SDS011;20879;55.668;37.858;2023-04-06T02:07:52;10.48;;;7.28;;
34673;SDS011;20879;55.668;37.858;2023-04-06T02:10:33;10.75;;;7.05;;
34673;SDS011;20879;55.668;37.858;2023-04-06T02:13:13;12.13;;;7.45;;
34673;SDS011;20879;55.668;37.858;2023-04-06T02:15:47;9.50;;;6.78;;
34673;SDS011;20879;55.668;37.858;2023-04-06T02:18:17;7.47;;;5.50;;
34673;SDS011;20879;55.668;37.858;2023-04-06T02:23:22;12.95;;;7.15;;
34673;SDS011;20879;55.668;37.858;2023-04-06T02:25:52;10.15;;;7.88;;
34673;SDS011;20879;55.668;37.858;2023-04-06T02:28:23;10.27;;;7.38;;
34673;SDS011;20879;55.668;37.858;2023-04-06T02:30:53;9.70;;;6.45;;
34673;SDS011;20879;55.668;37.858;2023-04-06T02:33:26;12.80;;;6.97;;
34673;SDS011;20879;55.668;37.858;2023-04-06T02:35:56;10.73;;;6.93;;
34673;SDS011;20879;55.668;37.858;2023-04-06T02:38:38;10.20;;;7.03;;
34673;SDS011;20879;55.668;37.858;2023-04-06T02:41:07;12.45;;;9.07;;
34673;SDS011;20879;55.668;37.858;2023-04-06T02:43:39;10.95;;;6.82;;
34673;SDS011;20879;55.668;37.858;2023-04-06T02:46:27;13.80;;;9.23;;
34673;SDS011;20879;55.668;37.858;2023-04-06T02:48:56;12.52;;;8.57;;
34673;SDS011;20879;55.668;37.858;2023-04-06T02:51:34;11.60;;;6.93;;
34673;SDS011;20879;55.668;37.858;2023-04-06T02:54:17;11.77;;;8.13;;
34673;SDS011;20879;55.668;37.858;2023-04-06T02:56:47;8.45;;;5.85;;
34673;SDS011;20879;55.668;37.858;2023-04-06T02:59:19;17.35;;;8.73;;
34673;SDS011;20879;55.668;37.858;2023-04-06T03:02:03;12.13;;;7.70;;
34673;SDS011;20879;55.668;37.858;2023-04-06T03:04:38;13.23;;;6.65;;
34673;SDS011;20879;55.668;37.858;2023-04-06T03:07:18;6.80;;;4.45;;
34673;SDS011;20879;55.668;37.858;2023-04-06T03:09:47;11.25;;;6.30;;
34673;SDS011;20879;55.668;37.858;2023-04-06T03:15:22;8.68;;;5.88;;
34673;SDS011;20879;55.668;37.858;2023-04-06T03:18:06;11.65;;;8.32;;
34673;SDS011;20879;55.668;37.858;2023-04-06T03:20:47;9.52;;;6.05;;
34673;SDS011;20879;55.668;37.858;2023-04-06T03:23:18;6.18;;;3.88;;
34673;SDS011;20879;55.668;37.858;2023-04-06T03:25:53;7.78;;;4.93;;
34673;SDS011;20879;55.668;37.858;2023-04-06T03:28:23;11.02;;;5.68;;
34673;SDS011;20879;55.668;37.858;2023-04-06T03:30:58;11.90;;;6.32;;
34673;SDS011;20879;55.668;37.858;2023-04-06T03:33:45;12.45;;;6.22;;
34673;SDS011;20879;55.668;37.858;2023-04-06T03:36:34;7.80;;;5.65;;
34673;SDS011;20879;55.668;37.858;2023-04-06T03:39:04;8.07;;;5.07;;
34673;SDS011;20879;55.668;37.858;2023-04-06T03:41:39;8.45;;;4.40;;
34673;SDS011;20879;55.668;37.858;2023-04-06T03:44:30;11.85;;;5.18;;
34673;SDS011;20879;55.668;37.858;2023-04-06T03:52:21;8.55;;;5.30;;
34673;SDS011;20879;55.668;37.858;2023-04-06T03:57:28;10.27;;;7.20;;
34673;SDS011;20879;55.668;37.858;2023-04-06T03:59:58;13.07;;;5.90;;
34673;SDS011;20879;55.668;37.858;2023-04-06T04:02:29;11.10;;;7.90;;
34673;SDS011;20879;55.668;37.858;2023-04-06T04:04:59;11.93;;;6.35;;
34673;SDS011;20879;55.668;37.858;2023-04-06T04:07:33;9.07;;;5.40;;
34673;SDS011;20879;55.668;37.858;2023-04-06T04:10:05;8.75;;;5.03;;
34673;SDS011;20879;55.668;37.858;2023-04-06T04:12:40;9.73;;;4.78;;
34673;SDS011;20879;55.668;37.858;2023-04-06T04:15:09;12.30;;;5.93;;
34673;SDS011;20879;55.668;37.858;2023-04-06T04:17:41;7.10;;;5.20;;
34673;SDS011;20879;55.668;37.858;2023-04-06T04:20:18;9.07;;;5.40;;
34673;SDS011;20879;55.668;37.858;2023-04-06T04:22:48;9.57;;;5.22;;
34673;SDS011;20879;55.668;37.858;2023-04-06T04:25:18;6.75;;;5.03;;
34673;SDS011;20879;55.668;37.858;2023-04-06T04:27:49;11.15;;;6.78;;
34673;SDS011;20879;55.668;37.858;2023-04-06T04:30:25;10.00;;;5.70;;
34673;SDS011;20879;55.668;37.858;2023-04-06T04:32:56;9.52;;;4.40;;
34673;SDS011;20879;55.668;37.858;2023-04-06T04:35:31;8.57;;;4.53;;
34673;SDS011;20879;55.668;37.858;2023-04-06T04:38:00;9.85;;;5.13;;
34673;SDS011;20879;55.668;37.858;2023-04-06T04:40:31;8.75;;;4.72;;
34673;SDS011;20879;55.668;37.858;2023-04-06T04:43:07;6.10;;;4.55;;
34673;SDS011;20879;55.668;37.858;2023-04-06T04:45:41;4.68;;;2.97;;
34673;SDS011;20879;55.668;37.858;2023-04-06T04:48:36;11.55;;;4.68;;
34673;SDS011;20879;55.668;37.858;2023-04-06T04:51:07;11.70;;;5.50;;
34673;SDS011;20879;55.668;37.858;2023-04-06T04:54:06;10.50;;;4.65;;
34673;SDS011;20879;55.668;37.858;2023-04-06T04:56:36;4.78;;;3.63;;
34673;SDS011;20879;55.668;37.858;2023-04-06T04:59:34;8.43;;;4.07;;
34673;SDS011;20879;55.668;37.858;2023-04-06T05:02:21;13.10;;;5.22;;
34673;SDS011;20879;55.668;37.858;2023-04-06T05:05:16;10.73;;;5.32;;
34673;SDS011;20879;55.668;37.858;2023-04-06T05:07:46;6.18;;;3.58;;
34673;SDS011;20879;55.668;37.858;2023-04-06T05:10:27;10.35;;;4.22;;
34673;SDS011;20879;55.668;37.858;2023-04-06T05:13:00;9.30;;;3.85;;
34673;SDS011;20879;55.668;37.858;2023-04-06T05:15:30;6.93;;;4.47;;
34673;SDS011;20879;55.668;37.858;2023-04-06T05:18:19;6.32;;;4.00;;
34673;SDS011;20879;55.668;37.858;2023-04-06T05:20:51;5.88;;;3.92;;
34673;SDS011;20879;55.668;37.858;2023-04-06T05:23:45;10.13;;;5.05;;
34673;SDS011;20879;55.668;37.858;2023-04-06T05:26:14;14.35;;;5.10;;
34673;SDS011;20879;55.668;37.858;2023-04-06T05:29:05;5.10;;;3.53;;
34673;SDS011;20879;55.668;37.858;2023-04-06T05:31:37;4.25;;;2.60;;
34673;SDS011;20879;55.668;37.858;2023-04-06T05:34:12;6.28;;;3.80;;
34673;SDS011;20879;55.668;37.858;2023-04-06T05:36:44;9.15;;;5.28;;
34673;SDS011;20879;55.668;37.858;2023-04-06T05:39:20;7.47;;;3.15;;
34673;SDS011;20879;55.668;37.858;2023-04-06T05:41:52;4.88;;;3.47;;
34673;SDS011;20879;55.668;37.858;2023-04-06T05:44:28;8.25;;;4.85;;
34673;SDS011;20879;55.668;37.858;2023-04-06T05:47:08;6.43;;;4.28;;
34673;SDS011;20879;55.668;37.858;2023-04-06T05:49:46;12.70;;;4.53;;
34673;SDS011;20879;55.668;37.858;2023-04-06T05:52:32;8.25;;;4.63;;
34673;SDS011;20879;55.668;37.858;2023-04-06T05:55:02;8.75;;;4.30;;
34673;SDS011;20879;55.668;37.858;2023-04-06T05:57:34;7.88;;;3.88;;
34673;SDS011;20879;55.668;37.858;2023-04-06T06:00:05;10.43;;;3.88;;
34673;SDS011;20879;55.668;37.858;2023-04-06T06:02:51;7.15;;;3.33;;
34673;SDS011;20879;55.668;37.858;2023-04-06T06:05:25;7.65;;;4.15;;
34673;SDS011;20879;55.668;37.858;2023-04-06T06:10:51;8.82;;;4.15;;
34673;SDS011;20879;55.668;37.858;2023-04-06T06:13:26;6.82;;;3.42;;
34673;SDS011;20879;55.668;37.858;2023-04-06T06:15:55;13.57;;;4.50;;
34673;SDS011;20879;55.668;37.858;2023-04-06T06:18:39;8.45;;;4.13;;
34673;SDS011;20879;55.668;37.858;2023-04-06T06:21:21;9.05;;;4.00;;
34673;SDS011;20879;55.668;37.858;2023-04-06T06:24:07;10.40;;;4.90;;
34673;SDS011;20879;55.668;37.858;2023-04-06T06:29:40;9.50;;;3.67;;
34673;SDS011;20879;55.668;37.858;2023-04-06T06:32:10;10.13;;;4.60;;
34673;SDS011;20879;55.668;37.858;2023-04-06T06:34:40;7.88;;;4.43;;
34673;SDS011;20879;55.668;37.858;2023-04-06T06:37:10;8.23;;;3.85;;
34673;SDS011;20879;55.668;37.858;2023-04-06T06:39:42;10.63;;;4.40;;
34673;SDS011;20879;55.668;37.858;2023-04-06T06:42:11;8.32;;;3.38;;
34673;SDS011;20879;55.668;37.858;2023-04-06T06:44:53;9.57;;;4.63;;
34673;SDS011;20879;55.668;37.858;2023-04-06T06:47:23;8.95;;;5.07;;
34673;SDS011;20879;55.668;37.858;2023-04-06T06:49:53;5.07;;;3.63;;
34673;SDS011;20879;55.668;37.858;2023-04-06T06:52:28;14.85;;;6.00;;
34673;SDS011;20879;55.668;37.858;2023-04-06T06:55:05;7.88;;;3.78;;
34673;SDS011;20879;55.668;37.858;2023-04-06T07:00:22;7.55;;;3.75;;
34673;SDS011;20879;55.668;37.858;2023-04-06T07:02:52;7.40;;;3.10;;
34673;SDS011;20879;55.668;37.858;2023-04-06T07:05:28;9.80;;;4.32;;
34673;SDS011;20879;55.668;37.858;2023-04-06T07:10:43;10.27;;;3.33;;
34673;SDS011;20879;55.668;37.858;2023-04-06T07:13:18;8.60;;;4.30;;
34673;SDS011;20879;55.668;37.858;2023-04-06T07:15:55;7.35;;;3.75;;
34673;SDS011;20879;55.668;37.858;2023-04-06T07:18:31;9.23;;;3.15;;
34673;SDS011;20879;55.668;37.858;2023-04-06T07:21:03;8.80;;;3.20;;
34673;SDS011;20879;55.668;37.858;2023-04-06T07:23:34;12.25;;;4.00;;
34673;SDS011;20879;55.668;37.858;2023-04-06T07:28:43;7.93;;;3.38;;
34673;SDS011;20879;55.668;37.858;2023-04-06T07:31:13;6.38;;;3.45;;
34673;SDS011;20879;55.668;37.858;2023-04-06T07:33:43;9.52;;;3.80;;
34673;SDS011;20879;55.668;37.858;2023-04-06T07:36:13;10.80;;;3.95;;
34673;SDS011;20879;55.668;37.858;2023-04-06T07:38:43;7.18;;;3.35;;
34673;SDS011;20879;55.668;37.858;2023-04-06T07:41:15;6.22;;;2.80;;
34673;SDS011;20879;55.668;37.858;2023-04-06T07:43:45;6.93;;;2.60;;
34673;SDS011;20879;55.668;37.858;2023-04-06T07:46:15;15.40;;;4.70;;
34673;SDS011;20879;55.668;37.858;2023-04-06T07:48:44;4.97;;;2.22;;
34673;SDS011;20879;55.668;37.858;2023-04-06T07:53:50;11.40;;;3.50;;
34673;SDS011;20879;55.668;37.858;2023-04-06T07:56:21;8.85;;;3.17;;
34673;SDS011;20879;55.668;37.858;2023-04-06T07:58:51;18.63;;;3.05;;
34673;SDS011;20879;55.668;37.858;2023-04-06T08:01:21;6.18;;;3.03;;
34673;SDS011;20879;55.668;37.858;2023-04-06T08:04:00;11.95;;;3.40;;
34673;SDS011;20879;55.668;37.858;2023-04-06T08:06:37;5.30;;;2.70;;
34673;SDS011;20879;55.668;37.858;2023-04-06T08:11:44;5.78;;;2.85;;
34673;SDS011;20879;55.668;37.858;2023-04-06T08:14:15;10.07;;;3.08;;
34673;SDS011;20879;55.668;37.858;2023-04-06T08:16:44;3.65;;;2.50;;
34673;SDS011;20879;55.668;37.858;2023-04-06T08:19:19;12.82;;;3.10;;
34673;SDS011;20879;55.668;37.858;2023-04-06T08:21:49;4.57;;;2.40;;
34673;SDS011;20879;55.668;37.858;2023-04-06T08:24:18;7.53;;;2.33;;
34673;SDS011;20879;55.668;37.858;2023-04-06T08:26:50;5.20;;;2.38;;
34673;SDS011;20879;55.668;37.858;2023-04-06T08:29:19;6.65;;;2.50;;
34673;SDS011;20879;55.668;37.858;2023-04-06T08:34:25;5.40;;;2.40;;
34673;SDS011;20879;55.668;37.858;2023-04-06T08:36:54;9.60;;;2.40;;
34673;SDS011;20879;55.668;37.858;2023-04-06T08:39:35;10.55;;;2.53;;
34673;SDS011;20879;55.668;37.858;2023-04-06T08:42:21;12.27;;;3.00;;
34673;SDS011;20879;55.668;37.858;2023-04-06T08:44:54;13.65;;;3.03;;
34673;SDS011;20879;55.668;37.858;2023-04-06T08:47:29;5.63;;;2.47;;
34673;SDS011;20879;55.668;37.858;2023-04-06T08:49:58;13.60;;;2.85;;
34673;SDS011;20879;55.668;37.858;2023-04-06T08:52:32;8.50;;;2.88;;
34673;SDS011;20879;55.668;37.858;2023-04-06T08:55:02;7.05;;;2.72;;
34673;SDS011;20879;55.668;37.858;2023-04-06T08:57:34;12.35;;;2.90;;
34673;SDS011;20879;55.668;37.858;2023-04-06T09:00:08;7.57;;;3.15;;
34673;SDS011;20879;55.668;37.858;2023-04-06T09:02:40;11.65;;;3.67;;
34673;SDS011;20879;55.668;37.858;2023-04-06T09:05:17;13.10;;;2.72;;
34673;SDS011;20879;55.668;37.858;2023-04-06T09:10:28;9.40;;;3.60;;
34673;SDS011;20879;55.668;37.858;2023-04-06T09:13:04;7.47;;;2.45;;
34673;SDS011;20879;55.668;37.858;2023-04-06T09:15:34;10.25;;;2.85;;
34673;SDS011;20879;55.668;37.858;2023-04-06T09:18:04;17.85;;;2.70;;
34673;SDS011;20879;55.668;37.858;2023-04-06T09:20:34;10.57;;;3.28;;
34673;SDS011;20879;55.668;37.858;2023-04-06T09:23:04;12.82;;;2.97;;
34673;SDS011;20879;55.668;37.858;2023-04-06T09:25:40;8.85;;;2.70;;
34673;SDS011;20879;55.668;37.858;2023-04-06T09:28:23;21.42;;;3.47;;
34673;SDS011;20879;55.668;37.858;2023-04-06T09:30:58;8.80;;;3.25;;
34673;SDS011;20879;55.668;37.858;2023-04-06T09:33:30;11.07;;;2.63;;
34673;SDS011;20879;55.668;37.858;2023-04-06T09:35:59;17.13;;;3.67;;
34673;SDS011;20879;55.668;37.858;2023-04-06T09:38:29;11.98;;;3.22;;
34673;SDS011;20879;55.668;37.858;2023-04-06T09:40:59;17.20;;;3.30;;
34673;SDS011;20879;55.668;37.858;2023-04-06T09:43:35;9.40;;;2.80;;
34673;SDS011;20879;55.668;37.858;2023-04-06T09:46:10;5.45;;;2.80;;
34673;SDS011;20879;55.668;37.858;2023-04-06T09:48:45;14.38;;;2.88;;
34673;SDS011;20879;55.668;37.858;2023-04-06T09:51:16;5.82;;;2.45;;
34673;SDS011;20879;55.668;37.858;2023-04-06T09:53:50;12.63;;;3.13;;
34673;SDS011;20879;55.668;37.858;2023-04-06T09:56:25;6.95;;;2.80;;
34673;SDS011;20879;55.668;37.858;2023-04-06T09:59:04;8.38;;;2.90;;
34673;SDS011;20879;55.668;37.858;2023-04-06T10:01:38;8.70;;;2.60;;
34673;SDS011;20879;55.668;37.858;2023-04-06T10:04:13;6.97;;;2.75;;
34673;SDS011;20879;55.668;37.858;2023-04-06T10:06:54;7.15;;;2.30;;
34673;SDS011;20879;55.668;37.858;2023-04-06T10:09:24;10.82;;;2.53;;
34673;SDS011;20879;55.668;37.858;2023-04-06T10:12:07;10.30;;;2.80;;
34673;SDS011;20879;55.668;37.858;2023-04-06T10:17:37;7.53;;;2.67;;
34673;SDS011;20879;55.668;37.858;2023-04-06T10:20:08;5.50;;;2.17;;
34673;SDS011;20879;55.668;37.858;2023-04-06T10:22:41;6.55;;;2.47;;
34673;SDS011;20879;55.668;37.858;2023-04-06T10:28:09;10.00;;;2.80;;
34673;SDS011;20879;55.668;37.858;2023-04-06T10:30:43;8.95;;;2.13;;
34673;SDS011;20879;55.668;37.858;2023-04-06T10:33:16;8.07;;;2.47;;
34673;SDS011;20879;55.668;37.858;2023-04-06T10:36:09;11.70;;;2.58;;
34673;SDS011;20879;55.668;37.858;2023-04-06T10:38:39;8.02;;;2.40;;
34673;SDS011;20879;55.668;37.858;2023-04-06T10:41:10;8.02;;;2.40;;
34673;SDS011;20879;55.668;37.858;2023-04-06T10:43:43;12.10;;;2.90;;
34673;SDS011;20879;55.668;37.858;2023-04-06T10:46:24;12.48;;;3.38;;
34673;SDS011;20879;55.668;37.858;2023-04-06T10:49:11;20.92;;;3.10;;
34673;SDS011;20879;55.668;37.858;2023-04-06T10:51:41;16.25;;;2.78;;
34673;SDS011;20879;55.668;37.858;2023-04-06T10:54:10;6.70;;;2.40;;
34673;SDS011;20879;55.668;37.858;2023-04-06T10:56:41;17.50;;;3.50;;
34673;SDS011;20879;55.668;37.858;2023-04-06T10:59:18;10.27;;;2.55;;
34673;SDS011;20879;55.668;37.858;2023-04-06T11:01:55;7.15;;;2.30;;
34673;SDS011;20879;55.668;37.858;2023-04-06T11:04:26;18.23;;;2.80;;
34673;SDS011;20879;55.668;37.858;2023-04-06T11:06:56;8.10;;;2.50;;
34673;SDS011;20879;55.668;37.858;2023-04-06T11:12:28;20.45;;;3.45;;
34673;SDS011;20879;55.668;37.858;2023-04-06T11:14:58;4.88;;;1.27;;
34673;SDS011;20879;55.668;37.858;2023-04-06T11:17:33;8.50;;;2.30;;
34673;SDS011;20879;55.668;37.858;2023-04-06T11:20:09;5.50;;;2.05;;
34673;SDS011;20879;55.668;37.858;2023-04-06T11:22:47;7.18;;;2.40;;
34673;SDS011;20879;55.668;37.858;2023-04-06T11:25:24;12.10;;;2.80;;
34673;SDS011;20879;55.668;37.858;2023-04-06T11:28:05;9.02;;;2.28;;
34673;SDS011;20879;55.668;37.858;2023-04-06T11:30:37;9.38;;;1.77;;
34673;SDS011;20879;55.668;37.858;2023-04-06T11:33:09;8.85;;;1.92;;
34673;SDS011;20879;55.668;37.858;2023-04-06T11:35:39;9.27;;;2.63;;
34673;SDS011;20879;55.668;37.858;2023-04-06T11:38:13;13.70;;;3.38;;
34673;SDS011;20879;55.668;37.858;2023-04-06T11:40:43;6.10;;;2.30;;
34673;SDS011;20879;55.668;37.858;2023-04-06T11:43:12;6.60;;;2.03;;
34673;SDS011;20879;55.668;37.858;2023-04-06T11:45:42;9.48;;;2.75;;
34673;SDS011;20879;55.668;37.858;2023-04-06T11:48:19;7.95;;;2.15;;
34673;SDS011;20879;55.668;37.858;2023-04-06T11:50:55;6.20;;;2.40;;
34673;SDS011;20879;55.668;37.858;2023-04-06T11:53:27;8.93;;;2.47;;
34673;SDS011;20879;55.668;37.858;2023-04-06T11:55:57;6.93;;;2.40;;
34673;SDS011;20879;55.668;37.858;2023-04-06T11:58:26;3.90;;;1.80;;
34673;SDS011;20879;55.668;37.858;2023-04-06T12:01:02;6.40;;;2.05;;
34673;SDS011;20879;55.668;37.858;2023-04-06T12:03:39;7.82;;;2.25;;
34673;SDS011;20879;55.668;37.858;2023-04-06T12:06:10;9.88;;;2.67;;
34673;SDS011;20879;55.668;37.858;2023-04-06T12:08:40;7.35;;;2.63;;
34673;SDS011;20879;55.668;37.858;2023-04-06T12:11:09;12.18;;;2.75;;
34673;SDS011;20879;55.668;37.858;2023-04-06T12:13:39;11.90;;;3.10;;
34673;SDS011;20879;55.668;37.858;2023-04-06T12:16:18;34.30;;;4.13;;
34673;SDS011;20879;55.668;37.858;2023-04-06T12:18:50;5.18;;;2.10;;
34673;SDS011;20879;55.668;37.858;2023-04-06T12:21:20;7.78;;;2.45;;
34673;SDS011;20879;55.668;37.858;2023-04-06T12:23:49;7.57;;;2.50;;
34673;SDS011;20879;55.668;37.858;2023-04-06T12:26:23;8.52;;;2.20;;
34673;SDS011;20879;55.668;37.858;2023-04-06T12:28:53;11.90;;;2.88;;
34673;SDS011;20879;55.668;37.858;2023-04-06T12:31:22;9.05;;;2.70;;
34673;SDS011;20879;55.668;37.858;2023-04-06T12:33:54;7.13;;;2.25;;
34673;SDS011;20879;55.668;37.858;2023-04-06T12:36:28;8.73;;;2.70;;
34673;SDS011;20879;55.668;37.858;2023-04-06T12:38:59;6.07;;;2.63;;
34673;SDS011;20879;55.668;37.858;2023-04-06T12:41:29;5.07;;;1.83;;
34673;SDS011;20879;55.668;37.858;2023-04-06T12:44:03;5.10;;;1.85;;
34673;SDS011;20879;55.668;37.858;2023-04-06T12:52:13;4.13;;;1.98;;
34673;SDS011;20879;55.668;37.858;2023-04-06T12:54:49;10.20;;;2.40;;
34673;SDS011;20879;55.668;37.858;2023-04-06T12:57:19;7.07;;;2.15;;
34673;SDS011;20879;55.668;37.858;2023-04-06T12:59:48;5.22;;;2.00;;
34673;SDS011;20879;55.668;37.858;2023-04-06T13:02:17;4.68;;;1.83;;
34673;SDS011;20879;55.668;37.858;2023-04-06T13:04:53;4.47;;;1.70;;
34673;SDS011;20879;55.668;37.858;2023-04-06T13:07:30;2.65;;;1.60;;
34673;SDS011;20879;55.668;37.858;2023-04-06T13:10:00;12.45;;;2.40;;
34673;SDS011;20879;55.668;37.858;2023-04-06T13:12:29;9.05;;;2.17;;
34673;SDS011;20879;55.668;37.858;2023-04-06T13:14:58;5.82;;;2.10;;
34673;SDS011;20879;55.668;37.858;2023-04-06T13:17:28;10.90;;;1.85;;
34673;SDS011;20879;55.668;37.858;2023-04-06T13:19:58;6.88;;;1.83;;
34673;SDS011;20879;55.668;37.858;2023-04-06T13:22:30;7.38;;;2.15;;
34673;SDS011;20879;55.668;37.858;2023-04-06T13:25:05;7.60;;;2.20;;
34673;SDS011;20879;55.668;37.858;2023-04-06T13:27:34;2.85;;;1.73;;
34673;SDS011;20879;55.668;37.858;2023-04-06T13:30:15;5.10;;;1.50;;
34673;SDS011;20879;55.668;37.858;2023-04-06T13:32:45;3.92;;;2.13;;
34673;SDS011;20879;55.668;37.858;2023-04-06T13:35:14;5.82;;;1.63;;
34673;SDS011;20879;55.668;37.858;2023-04-06T13:37:46;5.25;;;1.92;;
34673;SDS011;20879;55.668;37.858;2023-04-06T13:40:23;4.07;;;2.05;;
34673;SDS011;20879;55.668;37.858;2023-04-06T13:45:53;7.22;;;2.35;;
34673;SDS011;20879;55.668;37.858;2023-04-06T13:48:25;6.18;;;2.05;;
34673;SDS011;20879;55.668;37.858;2023-04-06T13:50:54;5.70;;;1.90;;
34673;SDS011;20879;55.668;37.858;2023-04-06T13:53:25;5.57;;;1.80;;
34673;SDS011;20879;55.668;37.858;2023-04-06T13:55:55;8.85;;;1.90;;
34673;SDS011;20879;55.668;37.858;2023-04-06T13:58:24;15.57;;;2.60;;
34673;SDS011;20879;55.668;37.858;2023-04-06T14:00:54;6.72;;;1.80;;
34673;SDS011;20879;55.668;37.858;2023-04-06T14:03:23;5.28;;;1.40;;
34673;SDS011;20879;55.668;37.858;2023-04-06T14:05:53;2.97;;;1.33;;
34673;SDS011;20879;55.668;37.858;2023-04-06T14:08:32;5.30;;;2.00;;
34673;SDS011;20879;55.668;37.858;2023-04-06T14:11:01;4.05;;;1.45;;
34673;SDS011;20879;55.668;37.858;2023-04-06T14:13:49;12.10;;;1.80;;
34673;SDS011;20879;55.668;37.858;2023-04-06T14:16:24;5.30;;;1.75;;
34673;SDS011;20879;55.668;37.858;2023-04-06T14:18:54;23.23;;;2.30;;
34673;SDS011;20879;55.668;37.858;2023-04-06T14:21:25;1.77;;;1.30;;
34673;SDS011;20879;55.668;37.858;2023-04-06T14:23:56;6.22;;;1.60;;
34673;SDS011;20879;55.668;37.858;2023-04-06T14:26:26;7.85;;;1.60;;
34673;SDS011;20879;55.668;37.858;2023-04-06T14:28:55;5.78;;;1.63;;
34673;SDS011;20879;55.668;37.858;2023-04-06T14:31:25;5.07;;;1.42;;
34673;SDS011;20879;55.668;37.858;2023-04-06T14:33:54;3.58;;;1.52;;
34673;SDS011;20879;55.668;37.858;2023-04-06T14:36:23;7.50;;;1.80;;
34673;SDS011;20879;55.668;37.858;2023-04-06T14:39:02;4.97;;;1.45;;
34673;SDS011;20879;55.668;37.858;2023-04-06T14:41:33;10.20;;;1.92;;
34673;SDS011;20879;55.668;37.858;2023-04-06T14:44:03;5.88;;;1.50;;
34673;SDS011;20879;55.668;37.858;2023-04-06T14:46:35;2.83;;;1.10;;
34673;SDS011;20879;55.668;37.858;2023-04-06T14:49:11;7.20;;;1.20;;
34673;SDS011;20879;55.668;37.858;2023-04-06T14:51:48;2.00;;;1.17;;
34673;SDS011;20879;55.668;37.858;2023-04-06T14:54:19;16.90;;;2.15;;
34673;SDS011;20879;55.668;37.858;2023-04-06T14:56:49;3.63;;;2.05;;
34673;SDS011;20879;55.668;37.858;2023-04-06T14:59:21;6.45;;;1.70;;
34673;SDS011;20879;55.668;37.858;2023-04-06T15:01:51;3.53;;;1.30;;
34673;SDS011;20879;55.668;37.858;2023-04-06T15:04:21;7.78;;;2.13;;
34673;SDS011;20879;55.668;37.858;2023-04-06T15:06:50;2.15;;;1.00;;
34673;SDS011;20879;55.668;37.858;2023-04-06T15:09:27;9.23;;;1.40;;
34673;SDS011;20879;55.668;37.858;2023-04-06T15:14:26;2.90;;;1.08;;
34673;SDS011;20879;55.668;37.858;2023-04-06T15:16:57;2.90;;;1.25;;
34673;SDS011;20879;55.668;37.858;2023-04-06T15:19:26;3.58;;;1.80;;
34673;SDS011;20879;55.668;37.858;2023-04-06T15:21:55;4.97;;;1.88;;
34673;SDS011;20879;55.668;37.858;2023-04-06T15:24:33;6.35;;;2.28;;
34673;SDS011;20879;55.668;37.858;2023-04-06T15:27:03;6.50;;;1.63;;
34673;SDS011;20879;55.668;37.858;2023-04-06T15:29:32;10.23;;;2.72;;
34673;SDS011;20879;55.668;37.858;2023-04-06T15:32:07;12.68;;;1.83;;
34673;SDS011;20879;55.668;37.858;2023-04-06T15:34:37;9.07;;;1.20;;
34673;SDS011;20879;55.668;37.858;2023-04-06T15:37:06;7.82;;;1.38;;
34673;SDS011;20879;55.668;37.858;2023-04-06T15:39:37;2.75;;;0.90;;
34673;SDS011;20879;55.668;37.858;2023-04-06T15:42:07;6.90;;;1.42;;
34673;SDS011;20879;55.668;37.858;2023-04-06T15:44:36;8.57;;;1.83;;
34673;SDS011;20879;55.668;37.858;2023-04-06T15:47:05;4.60;;;1.33;;
34673;SDS011;20879;55.668;37.858;2023-04-06T15:49:35;3.92;;;1.25;;
34673;SDS011;20879;55.668;37.858;2023-04-06T15:52:14;6.28;;;2.03;;
34673;SDS011;20879;55.668;37.858;2023-04-06T15:54:46;7.95;;;2.10;;
34673;SDS011;20879;55.668;37.858;2023-04-06T15:57:15;10.93;;;1.60;;
34673;SDS011;20879;55.668;37.858;2023-04-06T15:59:50;7.10;;;2.08;;
34673;SDS011;20879;55.668;37.858;2023-04-06T16:02:25;6.25;;;1.70;;
34673;SDS011;20879;55.668;37.858;2023-04-06T16:04:55;6.97;;;2.30;;
34673;SDS011;20879;55.668;37.858;2023-04-06T16:07:29;5.20;;;1.55;;
34673;SDS011;20879;55.668;37.858;2023-04-06T16:10:08;1.88;;;1.23;;